createdAt,value
2023-04-29T00:02:16.431Z,99588.22
2023-04-29T00:04:44.318Z,99587.38
2023-04-29T00:07:15.308Z,99588.22
2023-04-29T00:09:42.905Z,99589.09
2023-04-29T00:12:11.375Z,99591.69
2023-04-29T00:14:40.256Z,99589.97
2023-04-29T00:17:07.946Z,99587.38
2023-04-29T00:19:35.621Z,99591.72
2023-04-29T00:22:03.136Z,99586.53
2023-04-29T00:24:30.707Z,99585.63
2023-04-29T00:26:58.370Z,99593.44
2023-04-29T00:29:25.919Z,99593.44
2023-04-29T00:31:54.801Z,99590.81
2023-04-29T00:34:22.619Z,99589.97
2023-04-29T00:36:50.524Z,99593.41
2023-04-29T00:39:18.816Z,99593.44
2023-04-29T00:41:46.381Z,99589.94
2023-04-29T00:44:14.336Z,99590.84
2023-04-29T00:46:42.516Z,99589.94
2023-04-29T00:49:12.312Z,99595.16
2023-04-29T00:51:42.182Z,99596.00
2023-04-29T00:54:11.447Z,99610.69
2023-04-29T00:56:42.389Z,99595.13
2023-04-29T00:59:11.241Z,99596.00
2023-04-29T01:01:39.450Z,99596.00
2023-04-29T01:04:07.985Z,99601.19
2023-04-29T01:06:49.517Z,99605.50
2023-04-29T01:09:28.048Z,99596.84
2023-04-29T01:12:09.260Z,99602.03
2023-04-29T01:14:40.408Z,99596.84
2023-04-29T01:17:12.926Z,99602.88
2023-04-29T01:19:46.540Z,99600.28
2023-04-29T01:22:17.756Z,99596.84
2023-04-29T01:24:46.823Z,99602.00
2023-04-29T01:27:30.978Z,99604.59
2023-04-29T01:30:18.489Z,99608.88
2023-04-29T01:32:54.648Z,99598.53
2023-04-29T01:35:39.457Z,99603.69
2023-04-29T01:38:18.286Z,99607.06
2023-04-29T01:40:56.610Z,99606.22
2023-04-29T01:43:29.492Z,99602.75
2023-04-29T01:46:00.669Z,99601.88
2023-04-29T01:48:29.132Z,99601.84
2023-04-29T01:50:56.841Z,99607.88
2023-04-29T01:53:24.399Z,99604.41
2023-04-29T01:55:54.379Z,99606.13
2023-04-29T01:58:31.155Z,99613.03
2023-04-29T02:01:15.968Z,99613.88
2023-04-29T02:03:43.847Z,99615.59
2023-04-29T02:06:12.639Z,99615.56
2023-04-29T02:08:40.330Z,99611.25
2023-04-29T02:11:09.313Z,99615.56
2023-04-29T02:13:41.155Z,99611.28
2023-04-29T02:16:10.222Z,99619.03
2023-04-29T02:18:40.501Z,99626.78
2023-04-29T02:21:08.490Z,99618.16
2023-04-29T02:23:37.366Z,99625.06
2023-04-29T02:26:06.884Z,99619.88
2023-04-29T02:28:35.844Z,99625.97
2023-04-29T02:31:04.864Z,99629.47
2023-04-29T02:33:33.213Z,99634.63
2023-04-29T02:36:00.814Z,99632.88
2023-04-29T02:38:28.455Z,99638.06
2023-04-29T02:40:55.965Z,99636.31
2023-04-29T02:43:24.101Z,99643.22
2023-04-29T02:45:53.077Z,99639.75
2023-04-29T02:48:20.952Z,99639.72
2023-04-29T02:50:49.191Z,99643.16
2023-04-29T02:53:17.084Z,99650.94
2023-04-29T02:55:44.805Z,99647.47
2023-04-29T02:58:12.353Z,99639.72
2023-04-29T03:00:41.999Z,99642.28
2023-04-29T03:03:11.152Z,99643.09
2023-04-29T03:05:39.055Z,99642.22
2023-04-29T03:08:07.413Z,99643.94
2023-04-29T03:10:35.091Z,99648.22
2023-04-29T03:13:03.562Z,99655.94
2023-04-29T03:15:33.381Z,99655.94
2023-04-29T03:18:01.965Z,99655.03
2023-04-29T03:20:32.492Z,99649.00
2023-04-29T03:23:02.740Z,99656.78
2023-04-29T03:25:30.465Z,99649.00
2023-04-29T03:27:58.392Z,99644.66
2023-04-29T03:30:26.427Z,99644.66
2023-04-29T03:32:57.900Z,99648.16
2023-04-29T03:35:27.014Z,99650.72
2023-04-29T03:38:25.893Z,99653.31
2023-04-29T03:40:54.713Z,99646.47
2023-04-29T03:43:22.379Z,99657.69
2023-04-29T03:45:50.348Z,99655.13
2023-04-29T03:48:21.396Z,99661.16
2023-04-29T03:50:49.125Z,99668.88
2023-04-29T03:53:17.216Z,99664.53
2023-04-29T03:55:46.347Z,99667.97
2023-04-29T03:58:14.484Z,99667.13
2023-04-29T04:00:43.387Z,99678.31
2023-04-29T04:03:16.687Z,99663.66
2023-04-29T04:05:45.028Z,99668.84
2023-04-29T04:08:15.942Z,99676.56
2023-04-29T04:10:47.634Z,99682.59
2023-04-29T04:13:31.926Z,99685.19
2023-04-29T04:15:59.786Z,99686.09
2023-04-29T04:18:27.598Z,99691.31
2023-04-29T04:20:55.138Z,99693.88
2023-04-29T04:23:22.732Z,99696.50
2023-04-29T04:25:53.872Z,99699.91
2023-04-29T04:28:40.234Z,99701.59
2023-04-29T04:31:14.550Z,99699.84
2023-04-29T04:33:42.140Z,99705.84
2023-04-29T04:36:09.844Z,99713.56
2023-04-29T04:38:37.828Z,99720.34
2023-04-29T04:41:11.430Z,99720.34
2023-04-29T04:43:40.859Z,99716.84
2023-04-29T04:46:16.677Z,99727.16
2023-04-29T04:48:54.882Z,99737.50
2023-04-29T04:51:22.904Z,99739.22
2023-04-29T04:53:50.665Z,99731.47
2023-04-29T04:56:25.339Z,99745.25
2023-04-29T04:58:53.133Z,99754.78
2023-04-29T05:01:22.644Z,99750.38
2023-04-29T05:03:50.396Z,99753.00
2023-04-29T05:06:18.060Z,99765.06
2023-04-29T05:08:47.493Z,99770.16
2023-04-29T05:11:19.508Z,99772.72
2023-04-29T05:14:01.030Z,99771.78
2023-04-29T05:16:28.810Z,99772.56
2023-04-29T05:18:56.578Z,99767.41
2023-04-29T05:21:28.992Z,99770.78
2023-04-29T05:23:59.105Z,99780.41
2023-04-29T05:26:27.491Z,99777.69
2023-04-29T05:29:01.167Z,99776.75
2023-04-29T05:31:32.378Z,99780.22
2023-04-29T05:34:02.824Z,99782.00
2023-04-29T05:36:31.794Z,99782.91
2023-04-29T05:38:59.340Z,99783.00
2023-04-29T05:41:27.041Z,99782.91
2023-04-29T05:43:54.667Z,99790.81
2023-04-29T05:46:23.772Z,99784.84
2023-04-29T05:48:51.944Z,99788.44
2023-04-29T05:51:20.078Z,99789.34
2023-04-29T05:53:47.679Z,99811.88
2023-04-29T05:56:16.529Z,99804.09
2023-04-29T05:58:44.169Z,99811.97
2023-04-29T06:01:11.900Z,99819.03
2023-04-29T06:03:41.757Z,99826.03
2023-04-29T06:06:34.471Z,99824.31
2023-04-29T06:09:19.876Z,99817.47
2023-04-29T06:11:54.783Z,99828.72
2023-04-29T06:14:22.592Z,99823.47
2023-04-29T06:16:50.322Z,99838.19
2023-04-29T06:19:19.347Z,99831.22
2023-04-29T06:21:47.044Z,99839.94
2023-04-29T06:24:14.642Z,99840.81
2023-04-29T06:26:42.205Z,99849.47
2023-04-29T06:29:09.748Z,99852.16
2023-04-29T06:31:38.327Z,99859.88
2023-04-29T06:34:06.069Z,99857.41
2023-04-29T06:36:38.565Z,99861.84
2023-04-29T06:39:18.920Z,99854.13
2023-04-29T06:42:18.623Z,99864.53
2023-04-29T06:45:12.503Z,99868.84
2023-04-29T06:47:43.896Z,99878.38
2023-04-29T06:50:13.100Z,99870.53
2023-04-29T06:52:42.073Z,99884.31
2023-04-29T06:55:11.545Z,99877.44
2023-04-29T06:57:42.490Z,99888.69
2023-04-29T07:00:10.783Z,99886.91
2023-04-29T07:02:38.958Z,99882.66
2023-04-29T07:05:07.914Z,99885.31
2023-04-29T07:07:36.140Z,99890.63
2023-04-29T07:10:05.680Z,99892.41
2023-04-29T07:12:33.325Z,99901.09
2023-04-29T07:15:01.659Z,99901.84
2023-04-29T07:17:30.785Z,99906.13
2023-04-29T07:19:58.326Z,99914.72
2023-04-29T07:22:25.950Z,99911.19
2023-04-29T07:24:54.828Z,99916.56
2023-04-29T07:27:24.922Z,99927.69
2023-04-29T07:29:53.030Z,99919.09
2023-04-29T07:32:20.861Z,99920.72
2023-04-29T07:34:48.737Z,99919.88
2023-04-29T07:37:16.619Z,99917.06
2023-04-29T07:39:44.208Z,99925.84
2023-04-29T07:42:11.863Z,99921.53
2023-04-29T07:44:40.912Z,99931.16
2023-04-29T07:47:09.631Z,99939.72
2023-04-29T07:49:37.346Z,99937.22
2023-04-29T07:52:06.161Z,99938.84
2023-04-29T07:54:33.825Z,99942.34
2023-04-29T07:57:03.544Z,99942.38
2023-04-29T07:59:31.544Z,99938.22
2023-04-29T08:02:00.825Z,99940.03
2023-04-29T08:04:28.743Z,99941.78
2023-04-29T08:07:02.744Z,99940.91
2023-04-29T08:09:30.357Z,99936.50
2023-04-29T08:11:59.480Z,99940.84
2023-04-29T08:14:27.210Z,99941.63
2023-04-29T08:16:57.778Z,99940.75
2023-04-29T08:19:29.675Z,99943.38
2023-04-29T08:21:57.634Z,99949.50
2023-04-29T08:24:25.257Z,99946.69
2023-04-29T08:26:53.696Z,99956.38
2023-04-29T08:29:21.399Z,99954.53
2023-04-29T08:31:50.018Z,99954.47
2023-04-29T08:34:17.827Z,99958.00
2023-04-29T08:36:46.778Z,99954.63
2023-04-29T08:39:21.920Z,99947.81
2023-04-29T08:41:54.014Z,99949.66
2023-04-29T08:44:21.787Z,99949.81
2023-04-29T08:46:49.656Z,99952.44
2023-04-29T08:49:17.735Z,99955.03
2023-04-29T08:51:49.146Z,99954.09
2023-04-29T08:54:16.741Z,99960.09
2023-04-29T08:56:46.974Z,99954.97
2023-04-29T08:59:16.128Z,99958.44
2023-04-29T09:01:50.713Z,99962.81
2023-04-29T09:04:35.032Z,99961.94
2023-04-29T09:07:06.591Z,99966.34
2023-04-29T09:09:35.002Z,99965.50
2023-04-29T09:12:02.825Z,99968.97
2023-04-29T09:14:33.342Z,99965.50
2023-04-29T09:17:01.082Z,99968.97
2023-04-29T09:19:33.074Z,99971.63
2023-04-29T09:22:01.148Z,99969.88
2023-04-29T09:24:31.594Z,99967.28
2023-04-29T09:26:59.684Z,99973.34
2023-04-29T09:29:27.444Z,99973.31
2023-04-29T09:31:56.072Z,99974.13
2023-04-29T09:34:32.656Z,99973.19
2023-04-29T09:37:00.681Z,99979.19
2023-04-29T09:39:38.752Z,99975.75
2023-04-29T09:42:06.830Z,99981.69
2023-04-29T09:44:35.766Z,99978.97
2023-04-29T09:47:05.443Z,99977.25
2023-04-29T09:49:35.755Z,99984.25
2023-04-29T09:52:06.013Z,99980.88
2023-04-29T09:54:37.617Z,99975.78
2023-04-29T09:57:06.941Z,99977.56
2023-04-29T09:59:36.423Z,99980.22
2023-04-29T10:02:11.529Z,99981.09
2023-04-29T10:04:45.452Z,99975.91
2023-04-29T10:07:16.538Z,99978.50
2023-04-29T10:09:47.009Z,99979.41
2023-04-29T10:12:17.387Z,99988.97
2023-04-29T10:24:10.148Z,99981.13
2023-04-29T10:26:40.871Z,99987.25
2023-04-29T10:29:10.074Z,99987.19
2023-04-29T10:31:39.135Z,99988.06
2023-04-29T10:34:06.807Z,99977.69
2023-04-29T10:36:35.768Z,99981.13
2023-04-29T10:39:06.019Z,99979.38
2023-04-29T10:41:45.823Z,99986.28
2023-04-29T10:44:13.736Z,99992.31
2023-04-29T10:46:41.383Z,99998.31
2023-04-29T10:49:09.297Z,99995.66
2023-04-29T10:51:41.970Z,99997.38
2023-04-29T10:54:11.514Z,100006.84
2023-04-29T10:56:42.826Z,100006.84
2023-04-29T10:59:15.086Z,100003.41
2023-04-29T11:01:45.046Z,100009.47
2023-04-29T11:04:12.776Z,100005.91
2023-04-29T11:06:43.545Z,100011.94
2023-04-29T11:09:14.415Z,100007.56
2023-04-29T11:11:58.104Z,99999.84
2023-04-29T11:14:26.644Z,100004.31
2023-04-29T11:16:57.243Z,99999.22
2023-04-29T11:19:27.031Z,99991.50
2023-04-29T11:22:15.808Z,99993.28
2023-04-29T11:24:51.689Z,99994.13
2023-04-29T11:27:25.134Z,99988.84
2023-04-29T11:29:55.699Z,99995.63
2023-04-29T11:32:23.933Z,99992.91
2023-04-29T11:34:51.672Z,99996.22
2023-04-29T11:37:24.269Z,99987.31
2023-04-29T11:39:53.060Z,99994.22
2023-04-29T11:42:22.859Z,100002.09
2023-04-29T11:44:54.675Z,100006.41
2023-04-29T11:47:22.934Z,99993.41
2023-04-29T11:49:50.564Z,100002.91
2023-04-29T11:52:18.475Z,99999.56
2023-04-29T11:54:48.433Z,100002.44
2023-04-29T11:57:16.112Z,100001.69
2023-04-29T11:59:45.186Z,100004.38
2023-04-29T12:02:13.409Z,100001.84
2023-04-29T12:04:46.801Z,100000.13
2023-04-29T12:07:16.677Z,100004.53
2023-04-29T12:09:45.164Z,100005.41
2023-04-29T12:12:13.539Z,100009.75
2023-04-29T12:14:42.218Z,100009.72
2023-04-29T12:17:11.942Z,100007.13
2023-04-29T12:19:41.505Z,100003.66
2023-04-29T12:22:09.323Z,100005.44
2023-04-29T12:24:38.236Z,100014.97
2023-04-29T12:27:09.443Z,100017.56
2023-04-29T12:29:37.289Z,100013.22
2023-04-29T12:32:04.883Z,100010.59
2023-04-29T12:34:34.624Z,100015.78
2023-04-29T12:37:03.440Z,100014.94
2023-04-29T12:39:33.149Z,100011.47
2023-04-29T12:42:02.869Z,100012.34
2023-04-29T12:44:37.402Z,100017.56
2023-04-29T12:47:10.787Z,100018.41
2023-04-29T12:49:42.288Z,100019.28
2023-04-29T12:52:10.467Z,100019.28
2023-04-29T12:54:38.252Z,100027.06
2023-04-29T12:57:05.973Z,100027.91
2023-04-29T12:59:33.918Z,100025.28
2023-04-29T13:02:01.791Z,100032.22
2023-04-29T13:04:29.625Z,100027.03
2023-04-29T13:07:00.716Z,100034.78
2023-04-29T13:09:28.497Z,100033.94
2023-04-29T13:11:56.045Z,100034.78
2023-04-29T13:14:23.613Z,100033.06
2023-04-29T13:16:51.279Z,100025.31
2023-04-29T13:19:36.362Z,100028.78
2023-04-29T13:22:07.924Z,100029.66
2023-04-29T13:24:36.745Z,100034.88
2023-04-29T13:27:05.732Z,100036.63
2023-04-29T13:29:33.972Z,100036.56
2023-04-29T13:32:05.058Z,100037.44
2023-04-29T13:34:32.734Z,100034.84
2023-04-29T13:37:00.291Z,100041.81
2023-04-29T13:39:32.434Z,100039.22
2023-04-29T13:42:03.911Z,100041.81
2023-04-29T13:44:42.370Z,100048.75
2023-04-29T13:47:24.042Z,100047.88
2023-04-29T13:50:33.958Z,100044.38
2023-04-29T13:53:23.731Z,100041.72
2023-04-29T13:56:15.405Z,100037.34
2023-04-29T14:01:16.543Z,100043.34
2023-04-29T14:03:35.958Z,100055.47
2023-04-29T14:06:04.171Z,100052.03
2023-04-29T14:08:31.917Z,100056.41
2023-04-29T14:11:01.212Z,100050.34
2023-04-29T14:13:29.393Z,100046.84
2023-04-29T14:15:58.741Z,100052.06
2023-04-29T14:18:27.380Z,100046.91
2023-04-29T14:20:55.197Z,100054.59
2023-04-29T14:23:22.924Z,100050.19
2023-04-29T14:25:50.532Z,100055.44
2023-04-29T14:28:19.509Z,100060.69
2023-04-29T14:30:47.242Z,100063.34
2023-04-29T14:33:14.824Z,100070.34
2023-04-29T14:35:42.461Z,100070.41
2023-04-29T14:38:10.143Z,100072.16
2023-04-29T14:40:39.040Z,100075.63
2023-04-29T14:43:06.757Z,100079.09
2023-04-29T14:45:37.529Z,100083.44
2023-04-29T14:48:05.702Z,100083.41
2023-04-29T14:50:33.353Z,100082.56
2023-04-29T14:53:01.385Z,100079.94
2023-04-29T14:55:30.765Z,100081.63
2023-04-29T14:57:58.891Z,100090.34
2023-04-29T15:00:26.658Z,100082.56
2023-04-29T15:02:57.037Z,100086.84
2023-04-29T15:05:25.025Z,100085.94
2023-04-29T15:07:52.695Z,100087.66
2023-04-29T15:10:20.402Z,100095.41
2023-04-29T15:12:48.247Z,100093.69
2023-04-29T15:15:15.956Z,100100.53
2023-04-29T15:17:43.816Z,100092.66
2023-04-29T15:20:13.424Z,100090.00
2023-04-29T15:22:40.957Z,100095.19
2023-04-29T15:25:09.600Z,100092.53
2023-04-29T15:27:37.313Z,100099.38
2023-04-29T15:30:06.551Z,100097.56
2023-04-29T15:32:34.316Z,100112.28
2023-04-29T15:35:02.837Z,100101.94
2023-04-29T15:37:31.763Z,100110.56
2023-04-29T15:40:00.194Z,100107.09
2023-04-29T15:42:27.947Z,100115.72
2023-04-29T15:44:56.002Z,100109.69
2023-04-29T15:47:23.616Z,100116.53
2023-04-29T15:49:52.079Z,100115.69
2023-04-29T15:52:20.076Z,100120.03
2023-04-29T15:54:48.959Z,100129.59
2023-04-29T15:57:16.494Z,100126.88
2023-04-29T15:59:44.176Z,100124.28
2023-04-29T16:02:12.027Z,100127.75
2023-04-29T16:04:39.945Z,100126.06
2023-04-29T16:07:07.630Z,100120.78
2023-04-29T16:09:36.457Z,100119.06
2023-04-29T16:12:05.801Z,100116.44
2023-04-29T16:14:33.415Z,100118.97
2023-04-29T16:17:01.694Z,100118.94
2023-04-29T16:19:29.306Z,100113.78
2023-04-29T16:21:56.991Z,100114.56
2023-04-29T16:24:24.628Z,100118.84
2023-04-29T16:26:52.307Z,100121.44
2023-04-29T16:29:21.406Z,100121.47
2023-04-29T16:31:49.321Z,100123.06
2023-04-29T16:34:16.974Z,100116.19
2023-04-29T16:37:12.621Z,100120.63
2023-04-29T16:39:40.667Z,100112.06
2023-04-29T16:42:08.515Z,100117.25
2023-04-29T16:44:37.612Z,100111.16
2023-04-29T16:47:05.522Z,100112.06
2023-04-29T16:49:33.130Z,100119.06
2023-04-29T16:52:00.688Z,100117.31
2023-04-29T16:54:28.568Z,100119.06
2023-04-29T16:56:56.246Z,100110.38
2023-04-29T16:59:23.921Z,100117.28
2023-04-29T17:01:55.092Z,100125.94
2023-04-29T17:04:23.542Z,100122.47
2023-04-29T17:06:51.453Z,100129.44
2023-04-29T17:09:18.992Z,100128.47
2023-04-29T17:11:46.699Z,100131.13
2023-04-29T17:14:14.354Z,100127.66
2023-04-29T17:16:42.114Z,100125.94
2023-04-29T17:19:11.146Z,100128.56
2023-04-29T17:21:38.831Z,100124.34
2023-04-29T17:24:06.980Z,100133.09
2023-04-29T17:26:34.576Z,100127.13
2023-04-29T17:29:02.147Z,100129.81
2023-04-29T17:31:44.761Z,100133.44
2023-04-29T17:34:19.650Z,100132.69
2023-04-29T17:36:47.707Z,100137.00
2023-04-29T17:39:15.437Z,100137.03
2023-04-29T17:41:43.235Z,100136.16
2023-04-29T17:44:11.133Z,100133.56
2023-04-29T17:46:39.268Z,100135.28
2023-04-29T17:49:06.947Z,100135.31
2023-04-29T17:51:35.980Z,100132.81
2023-04-29T17:54:05.487Z,100138.94
2023-04-29T17:56:34.832Z,100138.94
2023-04-29T17:59:02.504Z,100137.19
2023-04-29T18:01:30.262Z,100145.00
2023-04-29T18:03:57.909Z,100141.50
2023-04-29T18:06:25.996Z,100148.38
2023-04-29T18:08:54.981Z,100143.94
2023-04-29T18:11:22.681Z,100145.59
2023-04-29T18:13:50.214Z,100152.50
2023-04-29T18:16:17.764Z,100150.66
2023-04-29T18:18:45.363Z,100140.16
2023-04-29T18:21:13.007Z,100153.84
2023-04-29T18:23:40.637Z,100146.78
2023-04-29T18:26:09.603Z,100151.78
2023-04-29T18:28:37.160Z,100154.13
2023-04-29T18:31:04.690Z,100154.66
2023-04-29T18:33:32.252Z,100146.84
2023-04-29T18:35:59.864Z,100146.72
2023-04-29T18:38:27.554Z,100145.69
2023-04-29T18:40:55.108Z,100150.75
2023-04-29T18:43:28.125Z,100152.31
2023-04-29T18:45:55.885Z,100159.81
2023-04-29T18:48:23.823Z,100161.25
2023-04-29T18:50:52.199Z,100160.03
2023-04-29T18:53:19.840Z,100163.41
2023-04-29T18:55:47.822Z,100169.38
2023-04-29T18:58:15.431Z,100173.56
2023-04-29T19:00:44.379Z,100172.63
2023-04-29T19:03:12.574Z,100164.84
2023-04-29T19:05:40.232Z,100168.22
2023-04-29T19:08:08.207Z,100174.06
2023-04-29T19:10:36.022Z,100176.56
2023-04-29T19:13:03.607Z,100185.94
2023-04-29T19:15:32.060Z,100183.44
2023-04-29T19:18:01.221Z,100178.25
2023-04-29T19:20:30.037Z,100179.03
2023-04-29T19:22:57.770Z,100199.63
2023-04-29T19:25:26.401Z,100198.72
2023-04-29T19:27:54.641Z,100192.59
2023-04-29T19:30:22.223Z,100203.81
2023-04-29T19:32:50.212Z,100207.16
2023-04-29T19:35:19.261Z,100207.94
2023-04-29T19:37:47.073Z,100206.13
2023-04-29T19:40:14.801Z,100213.78
2023-04-29T19:42:42.424Z,100204.28
2023-04-29T19:45:12.441Z,100208.38
2023-04-29T19:47:40.052Z,100196.38
2023-04-29T19:50:08.088Z,100196.38
2023-04-29T19:52:37.159Z,100206.66
2023-04-29T19:55:06.263Z,100210.09
2023-04-29T19:57:35.234Z,100215.13
2023-04-29T20:00:04.478Z,100210.00
2023-04-29T20:02:34.669Z,100215.13
2023-04-29T20:05:02.895Z,100210.09
2023-04-29T20:07:30.437Z,100206.56
2023-04-29T20:09:59.339Z,100217.84
2023-04-29T20:12:26.990Z,100215.25
2023-04-29T20:14:54.648Z,100220.41
2023-04-29T20:17:22.252Z,100212.69
2023-04-29T20:19:49.969Z,100216.06
2023-04-29T20:22:17.557Z,100213.47
2023-04-29T20:24:45.730Z,100221.19
2023-04-29T20:27:14.635Z,100220.34
2023-04-29T20:29:43.553Z,100220.31
2023-04-29T20:32:11.444Z,100222.91
2023-04-29T20:34:39.084Z,100218.53
2023-04-29T20:37:07.777Z,100219.31
2023-04-29T20:39:35.412Z,100223.53
2023-04-29T20:42:03.354Z,100224.22
2023-04-29T20:44:32.586Z,100218.19
2023-04-29T20:47:00.124Z,100224.22
2023-04-29T20:49:27.707Z,100226.78
2023-04-29T20:51:56.046Z,100226.78
2023-04-29T20:54:23.634Z,100225.06
2023-04-29T20:56:51.210Z,100225.13
2023-04-29T20:59:18.779Z,100228.59
2023-04-29T21:01:47.735Z,100228.53
2023-04-29T21:04:16.356Z,100232.81
2023-04-29T21:06:43.980Z,100230.13
2023-04-29T21:09:11.603Z,100224.94
2023-04-29T21:11:39.163Z,100231.75
2023-04-29T21:14:06.740Z,100229.13
2023-04-29T21:16:34.314Z,100236.84
2023-04-29T21:19:03.284Z,100231.63
2023-04-29T21:21:31.706Z,100238.47
2023-04-29T21:23:59.296Z,100235.03
2023-04-29T21:26:26.866Z,100236.78
2023-04-29T21:28:54.402Z,100236.84
2023-04-29T21:31:21.966Z,100240.34
2023-04-29T21:33:49.572Z,100242.97
2023-04-29T21:36:18.645Z,100247.31
2023-04-29T21:38:46.289Z,100242.16
2023-04-29T21:41:20.807Z,100236.91
2023-04-29T21:43:49.227Z,100235.94
2023-04-29T21:46:16.988Z,100240.28
2023-04-29T21:48:45.260Z,100243.69
2023-04-29T21:51:12.904Z,100248.03
2023-04-29T21:53:42.653Z,100249.81
2023-04-29T21:56:10.135Z,100249.00
2023-04-29T21:58:37.734Z,100243.75
2023-04-29T22:01:25.505Z,100246.25
2023-04-29T22:03:53.520Z,100247.06
2023-04-29T22:06:21.169Z,100246.13
2023-04-29T22:08:50.684Z,100242.69
2023-04-29T22:11:21.697Z,100238.38
2023-04-29T22:13:49.509Z,100241.84
2023-04-29T22:16:18.552Z,100246.22
2023-04-29T22:18:46.238Z,100240.97
2023-04-29T22:21:13.808Z,100248.78
2023-04-29T22:23:41.331Z,100263.41
2023-04-29T22:26:10.192Z,100252.22
2023-04-29T22:28:37.796Z,100249.56
2023-04-29T22:31:05.818Z,100252.09
2023-04-29T22:33:34.551Z,100254.66
2023-04-29T22:36:02.196Z,100253.81
2023-04-29T22:38:30.199Z,100257.28
2023-04-29T22:40:57.773Z,100247.94
2023-04-29T22:43:26.684Z,100253.09
2023-04-29T22:45:54.698Z,100252.22
2023-04-29T22:48:24.546Z,100257.44
2023-04-29T22:50:54.220Z,100261.75
2023-04-29T22:53:22.847Z,100259.91
2023-04-29T22:55:51.647Z,100252.94
2023-04-29T22:58:19.457Z,100260.59
2023-04-29T23:00:51.937Z,100253.50
2023-04-29T23:03:19.623Z,100260.34
2023-04-29T23:05:47.783Z,100260.44
2023-04-29T23:08:15.419Z,100254.34
2023-04-29T23:10:47.635Z,100257.88
2023-04-29T23:13:15.173Z,100251.88
2023-04-29T23:15:42.746Z,100251.91
2023-04-29T23:18:11.983Z,100253.59
2023-04-29T23:20:39.705Z,100264.00
2023-04-29T23:23:07.630Z,100264.75
2023-04-29T23:25:35.763Z,100267.41
2023-04-29T23:28:03.265Z,100265.66
2023-04-29T23:30:30.835Z,100267.41
2023-04-29T23:32:58.770Z,100275.97
2023-04-29T23:35:28.182Z,100270.81
2023-04-29T23:37:56.172Z,100267.47
2023-04-29T23:40:23.820Z,100265.88
2023-04-29T23:42:51.442Z,100269.31
2023-04-29T23:45:19.058Z,100263.19
2023-04-29T23:47:46.716Z,100267.47
2023-04-29T23:50:14.309Z,100267.41
2023-04-29T23:52:43.231Z,100265.66
2023-04-29T23:55:11.290Z,100267.34
2023-04-29T23:57:39.029Z,100274.16
